sensor_id;sensor_type;location;lat;lon;timestamp;P1;durP1;ratioP1;P2;durP2;ratioP2
23390;SDS011;11868;45.606;5.302;2023-12-07T00:02:13;34.40;;;23.33;;
23390;SDS011;11868;45.606;5.302;2023-12-07T00:04:39;35.22;;;24.95;;
23390;SDS011;11868;45.606;5.302;2023-12-07T00:07:04;48.75;;;31.08;;
23390;SDS011;11868;45.606;5.302;2023-12-07T00:09:29;38.05;;;25.75;;
23390;SDS011;11868;45.606;5.302;2023-12-07T00:11:55;34.97;;;23.77;;
23390;SDS011;11868;45.606;5.302;2023-12-07T00:14:20;32.13;;;23.17;;
23390;SDS011;11868;45.606;5.302;2023-12-07T00:16:46;34.05;;;23.30;;
23390;SDS011;11868;45.606;5.302;2023-12-07T00:19:11;35.65;;;23.75;;
23390;SDS011;11868;45.606;5.302;2023-12-07T00:21:37;32.00;;;21.60;;
23390;SDS011;11868;45.606;5.302;2023-12-07T00:24:02;30.73;;;19.92;;
23390;SDS011;11868;45.606;5.302;2023-12-07T00:26:28;28.90;;;18.50;;
23390;SDS011;11868;45.606;5.302;2023-12-07T00:28:53;28.35;;;18.40;;
23390;SDS011;11868;45.606;5.302;2023-12-07T00:31:18;28.92;;;17.52;;
23390;SDS011;11868;45.606;5.302;2023-12-07T00:33:45;29.13;;;17.75;;
23390;SDS011;11868;45.606;5.302;2023-12-07T00:36:10;28.27;;;19.88;;
23390;SDS011;11868;45.606;5.302;2023-12-07T00:38:37;29.55;;;19.25;;
23390;SDS011;11868;45.606;5.302;2023-12-07T00:41:03;32.17;;;20.30;;
23390;SDS011;11868;45.606;5.302;2023-12-07T00:43:28;34.75;;;22.75;;
23390;SDS011;11868;45.606;5.302;2023-12-07T00:45:54;28.85;;;19.58;;
23390;SDS011;11868;45.606;5.302;2023-12-07T00:48:19;32.50;;;18.23;;
23390;SDS011;11868;45.606;5.302;2023-12-07T00:50:44;30.10;;;20.30;;
23390;SDS011;11868;45.606;5.302;2023-12-07T00:53:10;39.50;;;24.20;;
23390;SDS011;11868;45.606;5.302;2023-12-07T00:55:35;31.33;;;20.08;;
23390;SDS011;11868;45.606;5.302;2023-12-07T00:58:00;29.50;;;19.13;;
23390;SDS011;11868;45.606;5.302;2023-12-07T01:00:26;47.10;;;29.67;;
23390;SDS011;11868;45.606;5.302;2023-12-07T01:02:52;32.72;;;21.70;;
23390;SDS011;11868;45.606;5.302;2023-12-07T01:05:17;31.67;;;19.52;;
23390;SDS011;11868;45.606;5.302;2023-12-07T01:07:43;29.52;;;19.38;;
23390;SDS011;11868;45.606;5.302;2023-12-07T01:10:08;30.13;;;19.05;;
23390;SDS011;11868;45.606;5.302;2023-12-07T01:12:34;32.10;;;19.52;;
23390;SDS011;11868;45.606;5.302;2023-12-07T01:15:00;33.28;;;18.88;;
23390;SDS011;11868;45.606;5.302;2023-12-07T01:17:26;29.40;;;18.30;;
23390;SDS011;11868;45.606;5.302;2023-12-07T01:19:51;31.77;;;19.40;;
23390;SDS011;11868;45.606;5.302;2023-12-07T01:22:16;30.50;;;18.95;;
23390;SDS011;11868;45.606;5.302;2023-12-07T01:24:41;31.17;;;19.77;;
23390;SDS011;11868;45.606;5.302;2023-12-07T01:27:07;28.55;;;18.80;;
23390;SDS011;11868;45.606;5.302;2023-12-07T01:29:32;33.83;;;20.02;;
23390;SDS011;11868;45.606;5.302;2023-12-07T01:31:58;30.58;;;19.73;;
23390;SDS011;11868;45.606;5.302;2023-12-07T01:34:23;34.53;;;20.92;;
23390;SDS011;11868;45.606;5.302;2023-12-07T01:36:48;42.10;;;21.92;;
23390;SDS011;11868;45.606;5.302;2023-12-07T01:39:14;39.33;;;21.55;;
23390;SDS011;11868;45.606;5.302;2023-12-07T01:41:39;36.15;;;20.60;;
23390;SDS011;11868;45.606;5.302;2023-12-07T01:44:05;35.03;;;20.13;;
23390;SDS011;11868;45.606;5.302;2023-12-07T01:46:30;29.15;;;19.70;;
23390;SDS011;11868;45.606;5.302;2023-12-07T01:48:56;33.38;;;20.75;;
23390;SDS011;11868;45.606;5.302;2023-12-07T01:51:22;30.88;;;20.17;;
23390;SDS011;11868;45.606;5.302;2023-12-07T01:53:47;33.75;;;19.10;;
23390;SDS011;11868;45.606;5.302;2023-12-07T01:56:13;31.42;;;20.13;;
23390;SDS011;11868;45.606;5.302;2023-12-07T01:58:38;34.95;;;20.02;;
23390;SDS011;11868;45.606;5.302;2023-12-07T02:01:04;32.97;;;19.92;;
23390;SDS011;11868;45.606;5.302;2023-12-07T02:03:31;31.30;;;19.05;;
23390;SDS011;11868;45.606;5.302;2023-12-07T02:05:57;31.45;;;18.20;;
23390;SDS011;11868;45.606;5.302;2023-12-07T02:08:23;28.95;;;18.33;;
23390;SDS011;11868;45.606;5.302;2023-12-07T02:10:49;23.35;;;16.80;;
23390;SDS011;11868;45.606;5.302;2023-12-07T02:13:14;22.88;;;17.05;;
23390;SDS011;11868;45.606;5.302;2023-12-07T02:15:40;27.27;;;18.23;;
23390;SDS011;11868;45.606;5.302;2023-12-07T02:18:16;28.10;;;17.63;;
23390;SDS011;11868;45.606;5.302;2023-12-07T02:20:47;25.98;;;17.90;;
23390;SDS011;11868;45.606;5.302;2023-12-07T02:23:18;27.08;;;18.92;;
23390;SDS011;11868;45.606;5.302;2023-12-07T02:25:53;28.10;;;17.67;;
23390;SDS011;11868;45.606;5.302;2023-12-07T02:28:19;25.80;;;18.42;;
23390;SDS011;11868;45.606;5.302;2023-12-07T02:30:45;25.90;;;17.33;;
23390;SDS011;11868;45.606;5.302;2023-12-07T02:33:10;27.90;;;18.20;;
23390;SDS011;11868;45.606;5.302;2023-12-07T02:35:36;22.55;;;17.05;;
23390;SDS011;11868;45.606;5.302;2023-12-07T02:38:02;26.65;;;17.27;;
23390;SDS011;11868;45.606;5.302;2023-12-07T02:40:28;24.88;;;16.90;;
23390;SDS011;11868;45.606;5.302;2023-12-07T02:42:54;29.75;;;16.58;;
23390;SDS011;11868;45.606;5.302;2023-12-07T02:45:20;23.77;;;16.08;;
23390;SDS011;11868;45.606;5.302;2023-12-07T02:47:45;28.00;;;16.65;;
23390;SDS011;11868;45.606;5.302;2023-12-07T02:50:11;26.58;;;17.10;;
23390;SDS011;11868;45.606;5.302;2023-12-07T02:52:37;23.67;;;15.88;;
23390;SDS011;11868;45.606;5.302;2023-12-07T02:55:02;25.63;;;16.00;;
23390;SDS011;11868;45.606;5.302;2023-12-07T02:57:28;23.77;;;15.55;;
23390;SDS011;11868;45.606;5.302;2023-12-07T02:59:54;23.00;;;16.15;;
23390;SDS011;11868;45.606;5.302;2023-12-07T03:02:20;23.42;;;16.42;;
23390;SDS011;11868;45.606;5.302;2023-12-07T03:04:45;22.88;;;15.25;;
23390;SDS011;11868;45.606;5.302;2023-12-07T03:07:11;21.88;;;15.18;;
23390;SDS011;11868;45.606;5.302;2023-12-07T03:09:36;23.08;;;15.68;;
23390;SDS011;11868;45.606;5.302;2023-12-07T03:12:01;21.38;;;15.35;;
23390;SDS011;11868;45.606;5.302;2023-12-07T03:14:27;23.60;;;16.52;;
23390;SDS011;11868;45.606;5.302;2023-12-07T03:16:52;25.45;;;16.85;;
23390;SDS011;11868;45.606;5.302;2023-12-07T03:19:17;27.75;;;17.25;;
23390;SDS011;11868;45.606;5.302;2023-12-07T03:21:43;28.10;;;18.17;;
23390;SDS011;11868;45.606;5.302;2023-12-07T03:24:08;29.02;;;18.27;;
23390;SDS011;11868;45.606;5.302;2023-12-07T03:26:34;25.23;;;17.63;;
23390;SDS011;11868;45.606;5.302;2023-12-07T03:28:59;27.60;;;17.58;;
23390;SDS011;11868;45.606;5.302;2023-12-07T03:31:25;27.45;;;18.52;;
23390;SDS011;11868;45.606;5.302;2023-12-07T03:33:50;24.35;;;17.45;;
23390;SDS011;11868;45.606;5.302;2023-12-07T03:36:15;28.80;;;18.05;;
23390;SDS011;11868;45.606;5.302;2023-12-07T03:38:41;28.05;;;16.25;;
23390;SDS011;11868;45.606;5.302;2023-12-07T03:41:07;26.88;;;16.73;;
23390;SDS011;11868;45.606;5.302;2023-12-07T03:43:32;24.77;;;16.92;;
23390;SDS011;11868;45.606;5.302;2023-12-07T03:45:58;25.60;;;16.73;;
23390;SDS011;11868;45.606;5.302;2023-12-07T03:48:23;25.15;;;16.63;;
23390;SDS011;11868;45.606;5.302;2023-12-07T03:50:48;24.40;;;15.90;;
23390;SDS011;11868;45.606;5.302;2023-12-07T03:53:13;22.30;;;15.65;;
23390;SDS011;11868;45.606;5.302;2023-12-07T03:55:39;23.30;;;16.25;;
23390;SDS011;11868;45.606;5.302;2023-12-07T03:58:04;20.98;;;14.45;;
23390;SDS011;11868;45.606;5.302;2023-12-07T04:00:31;26.20;;;15.45;;
23390;SDS011;11868;45.606;5.302;2023-12-07T04:02:57;26.52;;;16.15;;
23390;SDS011;11868;45.606;5.302;2023-12-07T04:05:22;52.85;;;32.33;;
23390;SDS011;11868;45.606;5.302;2023-12-07T04:07:48;58.90;;;31.38;;
23390;SDS011;11868;45.606;5.302;2023-12-07T04:10:13;39.65;;;24.48;;
23390;SDS011;11868;45.606;5.302;2023-12-07T04:12:38;89.85;;;54.30;;
23390;SDS011;11868;45.606;5.302;2023-12-07T04:15:04;29.25;;;20.05;;
23390;SDS011;11868;45.606;5.302;2023-12-07T04:17:30;25.67;;;16.88;;
23390;SDS011;11868;45.606;5.302;2023-12-07T04:19:55;22.48;;;15.50;;
23390;SDS011;11868;45.606;5.302;2023-12-07T04:22:20;24.45;;;15.52;;
23390;SDS011;11868;45.606;5.302;2023-12-07T04:24:46;29.13;;;18.52;;
23390;SDS011;11868;45.606;5.302;2023-12-07T04:27:11;29.20;;;18.50;;
23390;SDS011;11868;45.606;5.302;2023-12-07T04:29:37;35.75;;;25.58;;
23390;SDS011;11868;45.606;5.302;2023-12-07T04:32:02;28.42;;;18.90;;
23390;SDS011;11868;45.606;5.302;2023-12-07T04:34:28;26.33;;;18.20;;
23390;SDS011;11868;45.606;5.302;2023-12-07T04:36:53;36.60;;;24.13;;
23390;SDS011;11868;45.606;5.302;2023-12-07T04:39:19;62.60;;;42.10;;
23390;SDS011;11868;45.606;5.302;2023-12-07T04:41:44;39.15;;;22.58;;
23390;SDS011;11868;45.606;5.302;2023-12-07T04:44:09;25.05;;;16.92;;
23390;SDS011;11868;45.606;5.302;2023-12-07T04:46:35;23.10;;;15.45;;
23390;SDS011;11868;45.606;5.302;2023-12-07T04:49:00;24.65;;;16.67;;
23390;SDS011;11868;45.606;5.302;2023-12-07T04:51:26;25.13;;;15.68;;
23390;SDS011;11868;45.606;5.302;2023-12-07T04:53:51;25.05;;;17.00;;
23390;SDS011;11868;45.606;5.302;2023-12-07T04:56:16;25.05;;;16.80;;
23390;SDS011;11868;45.606;5.302;2023-12-07T04:58:42;27.90;;;18.27;;
23390;SDS011;11868;45.606;5.302;2023-12-07T05:01:07;21.27;;;15.45;;
23390;SDS011;11868;45.606;5.302;2023-12-07T05:03:32;20.98;;;14.93;;
23390;SDS011;11868;45.606;5.302;2023-12-07T05:05:57;23.65;;;15.77;;
23390;SDS011;11868;45.606;5.302;2023-12-07T05:08:23;28.67;;;19.55;;
23390;SDS011;11868;45.606;5.302;2023-12-07T05:10:48;29.67;;;19.38;;
23390;SDS011;11868;45.606;5.302;2023-12-07T05:13:13;28.35;;;18.85;;
23390;SDS011;11868;45.606;5.302;2023-12-07T05:15:39;27.65;;;19.15;;
23390;SDS011;11868;45.606;5.302;2023-12-07T05:18:04;28.20;;;19.58;;
23390;SDS011;11868;45.606;5.302;2023-12-07T05:20:30;26.52;;;18.23;;
23390;SDS011;11868;45.606;5.302;2023-12-07T05:22:55;25.52;;;17.63;;
23390;SDS011;11868;45.606;5.302;2023-12-07T05:25:21;23.52;;;15.85;;
23390;SDS011;11868;45.606;5.302;2023-12-07T05:27:46;24.80;;;17.35;;
23390;SDS011;11868;45.606;5.302;2023-12-07T05:30:12;31.08;;;19.90;;
23390;SDS011;11868;45.606;5.302;2023-12-07T05:32:38;29.08;;;18.95;;
23390;SDS011;11868;45.606;5.302;2023-12-07T05:35:03;31.23;;;20.45;;
23390;SDS011;11868;45.606;5.302;2023-12-07T05:37:29;32.95;;;18.75;;
23390;SDS011;11868;45.606;5.302;2023-12-07T05:39:54;32.55;;;17.45;;
23390;SDS011;11868;45.606;5.302;2023-12-07T05:42:20;26.45;;;17.45;;
23390;SDS011;11868;45.606;5.302;2023-12-07T05:44:45;27.58;;;17.30;;
23390;SDS011;11868;45.606;5.302;2023-12-07T05:47:10;25.23;;;17.08;;
23390;SDS011;11868;45.606;5.302;2023-12-07T05:49:36;27.95;;;17.00;;
23390;SDS011;11868;45.606;5.302;2023-12-07T05:52:01;23.70;;;15.90;;
23390;SDS011;11868;45.606;5.302;2023-12-07T05:54:27;24.83;;;16.00;;
23390;SDS011;11868;45.606;5.302;2023-12-07T05:56:53;27.63;;;16.52;;
23390;SDS011;11868;45.606;5.302;2023-12-07T05:59:18;26.65;;;17.13;;
23390;SDS011;11868;45.606;5.302;2023-12-07T06:01:44;27.35;;;17.73;;
23390;SDS011;11868;45.606;5.302;2023-12-07T06:04:09;26.55;;;16.95;;
23390;SDS011;11868;45.606;5.302;2023-12-07T06:06:35;29.63;;;16.98;;
23390;SDS011;11868;45.606;5.302;2023-12-07T06:09:00;25.48;;;16.45;;
23390;SDS011;11868;45.606;5.302;2023-12-07T06:11:26;28.05;;;15.98;;
23390;SDS011;11868;45.606;5.302;2023-12-07T06:13:51;24.98;;;16.15;;
23390;SDS011;11868;45.606;5.302;2023-12-07T06:16:16;24.88;;;16.33;;
23390;SDS011;11868;45.606;5.302;2023-12-07T06:18:43;27.90;;;16.13;;
23390;SDS011;11868;45.606;5.302;2023-12-07T06:21:09;29.50;;;17.83;;
23390;SDS011;11868;45.606;5.302;2023-12-07T06:23:34;24.30;;;16.90;;
23390;SDS011;11868;45.606;5.302;2023-12-07T06:26:00;26.90;;;17.08;;
23390;SDS011;11868;45.606;5.302;2023-12-07T06:28:27;26.60;;;17.70;;
23390;SDS011;11868;45.606;5.302;2023-12-07T06:30:52;26.58;;;18.33;;
23390;SDS011;11868;45.606;5.302;2023-12-07T06:33:17;27.20;;;17.60;;
23390;SDS011;11868;45.606;5.302;2023-12-07T06:35:43;29.00;;;18.00;;
23390;SDS011;11868;45.606;5.302;2023-12-07T06:38:08;28.65;;;17.90;;
23390;SDS011;11868;45.606;5.302;2023-12-07T06:40:33;30.85;;;17.85;;
23390;SDS011;11868;45.606;5.302;2023-12-07T06:42:59;28.65;;;17.13;;
23390;SDS011;11868;45.606;5.302;2023-12-07T06:45:24;29.65;;;18.17;;
23390;SDS011;11868;45.606;5.302;2023-12-07T06:47:49;27.58;;;17.50;;
23390;SDS011;11868;45.606;5.302;2023-12-07T06:50:15;27.17;;;17.05;;
23390;SDS011;11868;45.606;5.302;2023-12-07T06:52:40;26.58;;;16.55;;
23390;SDS011;11868;45.606;5.302;2023-12-07T06:55:06;28.23;;;16.67;;
23390;SDS011;11868;45.606;5.302;2023-12-07T06:57:32;24.40;;;16.08;;
23390;SDS011;11868;45.606;5.302;2023-12-07T06:59:58;25.40;;;16.63;;
23390;SDS011;11868;45.606;5.302;2023-12-07T07:02:23;23.40;;;15.57;;
23390;SDS011;11868;45.606;5.302;2023-12-07T07:04:49;23.65;;;15.73;;
23390;SDS011;11868;45.606;5.302;2023-12-07T07:07:17;25.63;;;15.70;;
23390;SDS011;11868;45.606;5.302;2023-12-07T07:09:42;24.30;;;15.30;;
23390;SDS011;11868;45.606;5.302;2023-12-07T07:12:08;24.27;;;14.48;;
23390;SDS011;11868;45.606;5.302;2023-12-07T07:14:33;21.17;;;14.65;;
23390;SDS011;11868;45.606;5.302;2023-12-07T07:16:59;21.95;;;14.32;;
23390;SDS011;11868;45.606;5.302;2023-12-07T07:19:24;30.85;;;19.10;;
23390;SDS011;11868;45.606;5.302;2023-12-07T07:21:50;32.40;;;23.77;;
23390;SDS011;11868;45.606;5.302;2023-12-07T07:24:15;65.70;;;40.13;;
23390;SDS011;11868;45.606;5.302;2023-12-07T07:26:41;68.03;;;39.22;;
23390;SDS011;11868;45.606;5.302;2023-12-07T07:29:06;45.28;;;24.65;;
23390;SDS011;11868;45.606;5.302;2023-12-07T07:31:32;68.30;;;37.47;;
23390;SDS011;11868;45.606;5.302;2023-12-07T07:33:57;30.25;;;16.00;;
23390;SDS011;11868;45.606;5.302;2023-12-07T07:36:22;23.70;;;15.43;;
23390;SDS011;11868;45.606;5.302;2023-12-07T07:38:48;67.70;;;34.55;;
23390;SDS011;11868;45.606;5.302;2023-12-07T07:41:13;57.85;;;33.15;;
23390;SDS011;11868;45.606;5.302;2023-12-07T07:43:39;61.55;;;37.08;;
23390;SDS011;11868;45.606;5.302;2023-12-07T07:46:04;55.20;;;32.00;;
23390;SDS011;11868;45.606;5.302;2023-12-07T07:48:30;51.55;;;31.33;;
23390;SDS011;11868;45.606;5.302;2023-12-07T07:50:55;86.45;;;46.25;;
23390;SDS011;11868;45.606;5.302;2023-12-07T07:53:21;97.28;;;54.83;;
23390;SDS011;11868;45.606;5.302;2023-12-07T07:55:46;68.20;;;32.03;;
23390;SDS011;11868;45.606;5.302;2023-12-07T07:58:11;44.00;;;25.50;;
23390;SDS011;11868;45.606;5.302;2023-12-07T08:00:37;35.80;;;19.20;;
23390;SDS011;11868;45.606;5.302;2023-12-07T08:03:02;32.78;;;18.17;;
23390;SDS011;11868;45.606;5.302;2023-12-07T08:05:28;32.83;;;19.88;;
23390;SDS011;11868;45.606;5.302;2023-12-07T08:07:53;34.38;;;20.23;;
23390;SDS011;11868;45.606;5.302;2023-12-07T08:10:19;53.20;;;32.35;;
23390;SDS011;11868;45.606;5.302;2023-12-07T08:12:45;30.77;;;17.38;;
23390;SDS011;11868;45.606;5.302;2023-12-07T08:15:10;29.77;;;19.23;;
23390;SDS011;11868;45.606;5.302;2023-12-07T08:17:39;34.92;;;21.75;;
23390;SDS011;11868;45.606;5.302;2023-12-07T08:20:06;42.08;;;23.50;;
23390;SDS011;11868;45.606;5.302;2023-12-07T08:22:32;32.83;;;18.50;;
23390;SDS011;11868;45.606;5.302;2023-12-07T08:24:57;30.98;;;17.38;;
23390;SDS011;11868;45.606;5.302;2023-12-07T08:27:23;31.48;;;16.63;;
23390;SDS011;11868;45.606;5.302;2023-12-07T08:29:49;28.90;;;17.52;;
23390;SDS011;11868;45.606;5.302;2023-12-07T08:32:15;28.73;;;15.68;;
23390;SDS011;11868;45.606;5.302;2023-12-07T08:34:43;29.67;;;17.10;;
23390;SDS011;11868;45.606;5.302;2023-12-07T08:37:09;26.45;;;15.95;;
23390;SDS011;11868;45.606;5.302;2023-12-07T08:39:34;25.70;;;15.07;;
23390;SDS011;11868;45.606;5.302;2023-12-07T08:42:00;25.83;;;15.85;;
23390;SDS011;11868;45.606;5.302;2023-12-07T08:44:26;23.17;;;14.55;;
23390;SDS011;11868;45.606;5.302;2023-12-07T08:46:51;25.92;;;15.13;;
23390;SDS011;11868;45.606;5.302;2023-12-07T08:49:16;26.85;;;15.70;;
23390;SDS011;11868;45.606;5.302;2023-12-07T08:51:41;36.60;;;17.83;;
23390;SDS011;11868;45.606;5.302;2023-12-07T08:54:07;30.20;;;18.27;;
23390;SDS011;11868;45.606;5.302;2023-12-07T08:56:32;32.05;;;18.98;;
23390;SDS011;11868;45.606;5.302;2023-12-07T08:58:57;27.73;;;17.00;;
23390;SDS011;11868;45.606;5.302;2023-12-07T09:01:23;29.77;;;17.27;;
23390;SDS011;11868;45.606;5.302;2023-12-07T09:03:48;30.80;;;18.60;;
23390;SDS011;11868;45.606;5.302;2023-12-07T09:06:13;34.13;;;18.88;;
23390;SDS011;11868;45.606;5.302;2023-12-07T09:08:39;34.15;;;19.98;;
23390;SDS011;11868;45.606;5.302;2023-12-07T09:11:04;36.45;;;19.30;;
23390;SDS011;11868;45.606;5.302;2023-12-07T09:13:29;31.42;;;19.35;;
23390;SDS011;11868;45.606;5.302;2023-12-07T09:15:55;37.83;;;21.30;;
23390;SDS011;11868;45.606;5.302;2023-12-07T09:18:20;32.63;;;19.52;;
23390;SDS011;11868;45.606;5.302;2023-12-07T09:20:45;32.85;;;19.50;;
23390;SDS011;11868;45.606;5.302;2023-12-07T09:23:14;29.40;;;18.25;;
23390;SDS011;11868;45.606;5.302;2023-12-07T09:25:42;29.63;;;18.33;;
23390;SDS011;11868;45.606;5.302;2023-12-07T09:28:07;28.98;;;17.63;;
23390;SDS011;11868;45.606;5.302;2023-12-07T09:30:33;24.98;;;16.15;;
23390;SDS011;11868;45.606;5.302;2023-12-07T09:32:59;28.65;;;17.23;;
23390;SDS011;11868;45.606;5.302;2023-12-07T09:35:24;26.40;;;16.15;;
23390;SDS011;11868;45.606;5.302;2023-12-07T09:37:50;28.23;;;16.35;;
23390;SDS011;11868;45.606;5.302;2023-12-07T09:40:16;24.25;;;15.45;;
23390;SDS011;11868;45.606;5.302;2023-12-07T09:42:45;25.23;;;15.90;;
23390;SDS011;11868;45.606;5.302;2023-12-07T09:45:11;27.23;;;15.57;;
23390;SDS011;11868;45.606;5.302;2023-12-07T09:47:37;26.80;;;16.15;;
23390;SDS011;11868;45.606;5.302;2023-12-07T09:50:07;24.58;;;15.80;;
23390;SDS011;11868;45.606;5.302;2023-12-07T09:52:33;13.27;;;9.18;;
23390;SDS011;11868;45.606;5.302;2023-12-07T09:54:59;7.40;;;5.18;;
23390;SDS011;11868;45.606;5.302;2023-12-07T09:57:24;6.72;;;4.63;;
23390;SDS011;11868;45.606;5.302;2023-12-07T09:59:49;8.00;;;5.05;;
23390;SDS011;11868;45.606;5.302;2023-12-07T10:02:15;6.80;;;4.70;;
23390;SDS011;11868;45.606;5.302;2023-12-07T10:04:41;6.60;;;4.40;;
23390;SDS011;11868;45.606;5.302;2023-12-07T10:07:06;6.93;;;3.97;;
23390;SDS011;11868;45.606;5.302;2023-12-07T10:09:34;7.22;;;5.07;;
23390;SDS011;11868;45.606;5.302;2023-12-07T10:12:06;8.85;;;5.13;;
23390;SDS011;11868;45.606;5.302;2023-12-07T10:14:32;7.90;;;4.65;;
23390;SDS011;11868;45.606;5.302;2023-12-07T10:16:58;16.55;;;9.68;;
23390;SDS011;11868;45.606;5.302;2023-12-07T10:19:24;8.20;;;5.00;;
23390;SDS011;11868;45.606;5.302;2023-12-07T10:21:53;8.43;;;5.32;;
23390;SDS011;11868;45.606;5.302;2023-12-07T10:24:20;7.47;;;3.83;;
23390;SDS011;11868;45.606;5.302;2023-12-07T10:26:47;5.60;;;4.30;;
23390;SDS011;11868;45.606;5.302;2023-12-07T10:29:13;7.78;;;4.22;;
23390;SDS011;11868;45.606;5.302;2023-12-07T10:31:39;5.13;;;3.88;;
23390;SDS011;11868;45.606;5.302;2023-12-07T10:34:05;5.18;;;3.85;;
23390;SDS011;11868;45.606;5.302;2023-12-07T10:36:30;6.50;;;3.75;;
23390;SDS011;11868;45.606;5.302;2023-12-07T10:38:56;7.95;;;4.60;;
23390;SDS011;11868;45.606;5.302;2023-12-07T10:41:25;11.15;;;5.32;;
23390;SDS011;11868;45.606;5.302;2023-12-07T10:44:11;5.47;;;3.30;;
23390;SDS011;11868;45.606;5.302;2023-12-07T10:46:38;5.32;;;3.90;;
23390;SDS011;11868;45.606;5.302;2023-12-07T10:49:07;5.68;;;3.65;;
23390;SDS011;11868;45.606;5.302;2023-12-07T10:51:44;19.08;;;8.55;;
23390;SDS011;11868;45.606;5.302;2023-12-07T10:54:11;4.78;;;3.50;;
23390;SDS011;11868;45.606;5.302;2023-12-07T10:56:41;4.53;;;3.10;;
23390;SDS011;11868;45.606;5.302;2023-12-07T10:59:09;3.72;;;2.50;;
23390;SDS011;11868;45.606;5.302;2023-12-07T11:01:37;4.32;;;3.47;;
23390;SDS011;11868;45.606;5.302;2023-12-07T11:04:03;4.32;;;2.90;;
23390;SDS011;11868;45.606;5.302;2023-12-07T11:06:31;5.88;;;3.00;;
23390;SDS011;11868;45.606;5.302;2023-12-07T11:08:58;5.22;;;2.83;;
23390;SDS011;11868;45.606;5.302;2023-12-07T11:11:27;4.03;;;2.75;;
23390;SDS011;11868;45.606;5.302;2023-12-07T11:13:58;4.85;;;2.78;;
23390;SDS011;11868;45.606;5.302;2023-12-07T11:16:35;3.80;;;2.67;;
23390;SDS011;11868;45.606;5.302;2023-12-07T11:19:01;6.43;;;3.30;;
23390;SDS011;11868;45.606;5.302;2023-12-07T11:21:28;4.90;;;3.13;;
23390;SDS011;11868;45.606;5.302;2023-12-07T11:23:53;4.63;;;3.38;;
23390;SDS011;11868;45.606;5.302;2023-12-07T11:26:25;8.27;;;2.88;;
23390;SDS011;11868;45.606;5.302;2023-12-07T11:28:51;4.80;;;3.25;;
23390;SDS011;11868;45.606;5.302;2023-12-07T11:31:17;5.10;;;3.42;;
23390;SDS011;11868;45.606;5.302;2023-12-07T11:33:42;10.15;;;6.57;;
23390;SDS011;11868;45.606;5.302;2023-12-07T11:36:08;16.70;;;9.23;;
23390;SDS011;11868;45.606;5.302;2023-12-07T11:38:38;6.93;;;4.53;;
23390;SDS011;11868;45.606;5.302;2023-12-07T11:41:35;20.42;;;13.63;;
23390;SDS011;11868;45.606;5.302;2023-12-07T11:44:05;7.35;;;5.07;;
23390;SDS011;11868;45.606;5.302;2023-12-07T11:46:31;6.47;;;3.10;;
23390;SDS011;11868;45.606;5.302;2023-12-07T11:48:56;3.45;;;2.70;;
23390;SDS011;11868;45.606;5.302;2023-12-07T11:51:22;3.65;;;2.63;;
23390;SDS011;11868;45.606;5.302;2023-12-07T11:53:48;4.80;;;2.70;;
23390;SDS011;11868;45.606;5.302;2023-12-07T11:56:15;6.75;;;3.00;;
23390;SDS011;11868;45.606;5.302;2023-12-07T11:58:45;4.53;;;3.53;;
23390;SDS011;11868;45.606;5.302;2023-12-07T12:01:10;5.25;;;2.38;;
23390;SDS011;11868;45.606;5.302;2023-12-07T12:03:36;4.50;;;2.45;;
23390;SDS011;11868;45.606;5.302;2023-12-07T12:06:03;5.18;;;2.53;;
23390;SDS011;11868;45.606;5.302;2023-12-07T12:08:30;2.90;;;2.10;;
23390;SDS011;11868;45.606;5.302;2023-12-07T12:10:56;3.65;;;2.60;;
23390;SDS011;11868;45.606;5.302;2023-12-07T12:13:28;4.28;;;2.20;;
23390;SDS011;11868;45.606;5.302;2023-12-07T12:15:54;18.13;;;3.50;;
23390;SDS011;11868;45.606;5.302;2023-12-07T12:18:21;12.68;;;2.67;;
23390;SDS011;11868;45.606;5.302;2023-12-07T12:20:46;10.07;;;2.10;;
23390;SDS011;11868;45.606;5.302;2023-12-07T12:23:11;4.88;;;2.00;;
23390;SDS011;11868;45.606;5.302;2023-12-07T12:25:37;4.00;;;2.80;;
23390;SDS011;11868;45.606;5.302;2023-12-07T12:28:03;5.75;;;2.38;;
23390;SDS011;11868;45.606;5.302;2023-12-07T12:30:29;6.30;;;3.00;;
23390;SDS011;11868;45.606;5.302;2023-12-07T12:32:55;5.18;;;2.83;;
23390;SDS011;11868;45.606;5.302;2023-12-07T12:35:21;4.00;;;2.25;;
23390;SDS011;11868;45.606;5.302;2023-12-07T12:37:47;5.38;;;2.83;;
23390;SDS011;11868;45.606;5.302;2023-12-07T12:40:14;3.53;;;2.15;;
23390;SDS011;11868;45.606;5.302;2023-12-07T12:42:50;7.47;;;3.92;;
23390;SDS011;11868;45.606;5.302;2023-12-07T12:45:16;5.15;;;2.63;;
23390;SDS011;11868;45.606;5.302;2023-12-07T12:47:43;5.60;;;3.40;;
23390;SDS011;11868;45.606;5.302;2023-12-07T12:50:10;2.95;;;2.20;;
23390;SDS011;11868;45.606;5.302;2023-12-07T12:52:36;6.68;;;3.33;;
23390;SDS011;11868;45.606;5.302;2023-12-07T12:55:02;6.10;;;3.50;;
23390;SDS011;11868;45.606;5.302;2023-12-07T12:57:28;3.80;;;2.30;;
23390;SDS011;11868;45.606;5.302;2023-12-07T12:59:53;5.35;;;2.78;;
23390;SDS011;11868;45.606;5.302;2023-12-07T13:02:22;3.60;;;2.50;;
23390;SDS011;11868;45.606;5.302;2023-12-07T13:04:47;4.43;;;2.22;;
23390;SDS011;11868;45.606;5.302;2023-12-07T13:07:13;6.50;;;3.15;;
23390;SDS011;11868;45.606;5.302;2023-12-07T13:09:38;25.85;;;15.60;;
23390;SDS011;11868;45.606;5.302;2023-12-07T13:12:04;9.27;;;5.75;;
23390;SDS011;11868;45.606;5.302;2023-12-07T13:14:30;8.88;;;5.85;;
23390;SDS011;11868;45.606;5.302;2023-12-07T13:16:55;13.93;;;9.57;;
23390;SDS011;11868;45.606;5.302;2023-12-07T13:19:20;25.25;;;15.50;;
23390;SDS011;11868;45.606;5.302;2023-12-07T13:21:46;24.55;;;17.17;;
23390;SDS011;11868;45.606;5.302;2023-12-07T13:24:11;12.07;;;7.85;;
23390;SDS011;11868;45.606;5.302;2023-12-07T13:26:38;10.35;;;6.43;;
23390;SDS011;11868;45.606;5.302;2023-12-07T13:29:03;9.20;;;5.85;;
23390;SDS011;11868;45.606;5.302;2023-12-07T13:31:29;17.13;;;10.95;;
23390;SDS011;11868;45.606;5.302;2023-12-07T13:33:54;16.70;;;9.23;;
23390;SDS011;11868;45.606;5.302;2023-12-07T13:36:21;12.32;;;8.60;;
23390;SDS011;11868;45.606;5.302;2023-12-07T13:38:49;9.73;;;6.55;;
23390;SDS011;11868;45.606;5.302;2023-12-07T13:41:14;16.00;;;9.35;;
23390;SDS011;11868;45.606;5.302;2023-12-07T13:43:39;11.90;;;8.48;;
23390;SDS011;11868;45.606;5.302;2023-12-07T13:46:06;8.20;;;4.60;;
23390;SDS011;11868;45.606;5.302;2023-12-07T13:48:32;8.77;;;5.70;;
23390;SDS011;11868;45.606;5.302;2023-12-07T13:50:57;9.45;;;6.00;;
23390;SDS011;11868;45.606;5.302;2023-12-07T13:53:22;7.50;;;4.00;;
23390;SDS011;11868;45.606;5.302;2023-12-07T13:55:48;14.18;;;5.45;;
23390;SDS011;11868;45.606;5.302;2023-12-07T13:58:16;5.72;;;3.53;;
23390;SDS011;11868;45.606;5.302;2023-12-07T14:00:41;3.80;;;2.40;;
23390;SDS011;11868;45.606;5.302;2023-12-07T14:03:10;4.63;;;2.97;;
23390;SDS011;11868;45.606;5.302;2023-12-07T14:05:36;6.43;;;3.47;;
23390;SDS011;11868;45.606;5.302;2023-12-07T14:08:01;6.28;;;3.60;;
23390;SDS011;11868;45.606;5.302;2023-12-07T14:10:27;4.28;;;2.88;;
23390;SDS011;11868;45.606;5.302;2023-12-07T14:12:53;5.05;;;3.00;;
23390;SDS011;11868;45.606;5.302;2023-12-07T14:15:18;4.03;;;2.55;;
23390;SDS011;11868;45.606;5.302;2023-12-07T14:17:44;3.78;;;2.70;;
23390;SDS011;11868;45.606;5.302;2023-12-07T14:20:10;5.30;;;2.90;;
23390;SDS011;11868;45.606;5.302;2023-12-07T14:22:36;5.20;;;3.00;;